sensor_id;sensor_type;location;lat;lon;timestamp;pressure;altitude;pressure_sealevel;temperature;humidity
73870;BME280;64924;42.140;24.762;2024-01-16T00:01:26;98340.59;;;5.21;53.05
73870;BME280;64924;42.140;24.762;2024-01-16T00:03:51;98335.00;;;5.23;52.76
73870;BME280;64924;42.140;24.762;2024-01-16T00:06:17;98327.13;;;5.21;52.58
73870;BME280;64924;42.140;24.762;2024-01-16T00:08:42;98329.22;;;5.19;52.75
73870;BME280;64924;42.140;24.762;2024-01-16T00:11:08;98329.53;;;5.10;52.90
73870;BME280;64924;42.140;24.762;2024-01-16T00:13:33;98332.41;;;5.08;53.07
73870;BME280;64924;42.140;24.762;2024-01-16T00:15:59;98337.59;;;5.10;53.16
73870;BME280;64924;42.140;24.762;2024-01-16T00:18:26;98290.75;;;4.83;53.35
73870;BME280;64924;42.140;24.762;2024-01-16T00:20:52;98310.75;;;4.95;53.29
73870;BME280;64924;42.140;24.762;2024-01-16T00:23:17;98331.91;;;4.98;53.53
73870;BME280;64924;42.140;24.762;2024-01-16T00:25:43;98327.41;;;4.84;54.18
73870;BME280;64924;42.140;24.762;2024-01-16T00:28:08;98296.66;;;4.50;54.34
73870;BME280;64924;42.140;24.762;2024-01-16T00:30:34;98345.41;;;4.83;53.91
73870;BME280;64924;42.140;24.762;2024-01-16T00:33:14;98352.06;;;4.87;53.65
73870;BME280;64924;42.140;24.762;2024-01-16T00:35:39;98298.03;;;4.61;53.45
73870;BME280;64924;42.140;24.762;2024-01-16T00:38:04;98339.72;;;4.93;52.88
73870;BME280;64924;42.140;24.762;2024-01-16T00:40:30;98323.75;;;4.91;52.46
73870;BME280;64924;42.140;24.762;2024-01-16T00:42:56;98353.50;;;5.04;52.30
73870;BME280;64924;42.140;24.762;2024-01-16T00:45:21;98336.66;;;4.96;52.33
73870;BME280;64924;42.140;24.762;2024-01-16T00:47:47;98346.78;;;4.94;52.56
73870;BME280;64924;42.140;24.762;2024-01-16T00:50:13;98342.16;;;4.88;52.73
73870;BME280;64924;42.140;24.762;2024-01-16T00:52:38;98327.19;;;4.79;53.19
73870;BME280;64924;42.140;24.762;2024-01-16T00:55:04;98313.72;;;4.79;53.03
73870;BME280;64924;42.140;24.762;2024-01-16T00:57:30;98332.03;;;4.90;53.07
73870;BME280;64924;42.140;24.762;2024-01-16T00:59:55;98340.34;;;4.95;52.92
73870;BME280;64924;42.140;24.762;2024-01-16T01:02:21;98318.84;;;4.95;52.48
73870;BME280;64924;42.140;24.762;2024-01-16T01:04:47;98319.47;;;4.97;52.57
73870;BME280;64924;42.140;24.762;2024-01-16T01:07:15;98265.03;;;4.74;52.28
73870;BME280;64924;42.140;24.762;2024-01-16T01:09:41;98307.09;;;5.02;52.34
73870;BME280;64924;42.140;24.762;2024-01-16T01:12:06;98312.69;;;5.01;52.29
73870;BME280;64924;42.140;24.762;2024-01-16T01:14:33;98303.31;;;4.97;52.37
73870;BME280;64924;42.140;24.762;2024-01-16T01:16:59;98307.81;;;4.90;52.67
73870;BME280;64924;42.140;24.762;2024-01-16T01:19:24;98306.78;;;4.91;52.71
73870;BME280;64924;42.140;24.762;2024-01-16T01:21:50;98309.22;;;4.86;52.90
73870;BME280;64924;42.140;24.762;2024-01-16T01:24:15;98303.66;;;4.87;52.79
73870;BME280;64924;42.140;24.762;2024-01-16T01:26:43;98275.88;;;4.80;52.88
73870;BME280;64924;42.140;24.762;2024-01-16T01:29:09;98286.56;;;4.74;53.00
73870;BME280;64924;42.140;24.762;2024-01-16T01:31:35;98289.91;;;4.76;53.10
73870;BME280;64924;42.140;24.762;2024-01-16T01:34:00;98278.69;;;4.72;53.15
73870;BME280;64924;42.140;24.762;2024-01-16T01:36:26;98272.47;;;4.72;53.29
73870;BME280;64924;42.140;24.762;2024-01-16T01:38:52;98263.13;;;4.67;53.64
73870;BME280;64924;42.140;24.762;2024-01-16T01:41:17;98237.50;;;4.29;53.93
73870;BME280;64924;42.140;24.762;2024-01-16T01:43:43;98287.63;;;4.58;53.79
73870;BME280;64924;42.140;24.762;2024-01-16T01:46:15;98288.09;;;4.61;54.12
73870;BME280;64924;42.140;24.762;2024-01-16T01:48:42;98288.34;;;4.45;54.14
73870;BME280;64924;42.140;24.762;2024-01-16T01:51:09;98286.03;;;4.42;54.39
73870;BME280;64924;42.140;24.762;2024-01-16T01:53:36;98175.88;;;3.34;55.44
73870;BME280;64924;42.140;24.762;2024-01-16T01:56:08;98302.13;;;4.21;55.59
73870;BME280;64924;42.140;24.762;2024-01-16T01:58:34;98298.16;;;4.17;55.55
73870;BME280;64924;42.140;24.762;2024-01-16T02:01:01;98284.97;;;4.22;55.25
73870;BME280;64924;42.140;24.762;2024-01-16T02:03:29;98298.38;;;4.36;55.07
73870;BME280;64924;42.140;24.762;2024-01-16T02:05:57;98247.84;;;4.11;54.55
73870;BME280;64924;42.140;24.762;2024-01-16T02:08:23;98284.13;;;4.36;54.49
73870;BME280;64924;42.140;24.762;2024-01-16T02:10:49;98293.31;;;4.48;54.42
73870;BME280;64924;42.140;24.762;2024-01-16T02:13:15;98295.19;;;4.48;54.14
73870;BME280;64924;42.140;24.762;2024-01-16T02:15:43;98298.31;;;4.51;54.06
73870;BME280;64924;42.140;24.762;2024-01-16T02:18:09;98289.44;;;4.51;53.86
73870;BME280;64924;42.140;24.762;2024-01-16T02:20:34;98275.09;;;4.44;53.87
73870;BME280;64924;42.140;24.762;2024-01-16T02:23:03;98301.66;;;4.53;53.70
73870;BME280;64924;42.140;24.762;2024-01-16T02:25:29;98310.47;;;4.47;53.86
73870;BME280;64924;42.140;24.762;2024-01-16T02:27:55;98310.06;;;4.44;54.09
73870;BME280;64924;42.140;24.762;2024-01-16T02:30:21;98311.47;;;4.40;54.04
73870;BME280;64924;42.140;24.762;2024-01-16T02:32:46;98304.59;;;4.37;53.72
73870;BME280;64924;42.140;24.762;2024-01-16T02:35:11;98311.66;;;4.38;53.67
73870;BME280;64924;42.140;24.762;2024-01-16T02:37:37;98300.06;;;4.38;53.70
73870;BME280;64924;42.140;24.762;2024-01-16T02:40:03;98323.88;;;4.41;53.79
73870;BME280;64924;42.140;24.762;2024-01-16T02:42:34;98277.66;;;4.16;53.87
73870;BME280;64924;42.140;24.762;2024-01-16T02:45:01;98318.69;;;4.60;53.21
73870;BME280;64924;42.140;24.762;2024-01-16T02:47:27;98317.78;;;4.53;53.48
73870;BME280;64924;42.140;24.762;2024-01-16T02:49:52;98311.28;;;4.62;53.31
73870;BME280;64924;42.140;24.762;2024-01-16T02:52:18;98273.03;;;4.46;53.34
73870;BME280;64924;42.140;24.762;2024-01-16T02:54:43;98314.41;;;4.66;53.33
73870;BME280;64924;42.140;24.762;2024-01-16T02:57:09;98308.41;;;4.64;52.97
73870;BME280;64924;42.140;24.762;2024-01-16T02:59:35;98318.78;;;4.67;53.01
73870;BME280;64924;42.140;24.762;2024-01-16T03:02:00;98312.63;;;4.73;52.99
73870;BME280;64924;42.140;24.762;2024-01-16T03:04:26;98315.00;;;4.61;53.31
73870;BME280;64924;42.140;24.762;2024-01-16T03:06:51;98335.13;;;4.51;53.98
73870;BME280;64924;42.140;24.762;2024-01-16T03:09:17;98325.84;;;4.32;54.53
73870;BME280;64924;42.140;24.762;2024-01-16T03:11:43;98316.38;;;4.36;54.85
73870;BME280;64924;42.140;24.762;2024-01-16T03:14:08;98332.25;;;4.52;54.27
73870;BME280;64924;42.140;24.762;2024-01-16T03:16:34;98303.69;;;4.30;54.34
73870;BME280;64924;42.140;24.762;2024-01-16T03:19:00;98308.22;;;4.29;54.65
73870;BME280;64924;42.140;24.762;2024-01-16T03:21:26;98318.50;;;4.41;54.33
73870;BME280;64924;42.140;24.762;2024-01-16T03:23:51;98325.41;;;4.50;54.14
73870;BME280;64924;42.140;24.762;2024-01-16T03:26:17;98334.84;;;4.60;53.93
73870;BME280;64924;42.140;24.762;2024-01-16T03:28:42;98340.69;;;4.64;53.87
73870;BME280;64924;42.140;24.762;2024-01-16T03:31:08;98313.03;;;4.34;54.49
73870;BME280;64924;42.140;24.762;2024-01-16T03:33:34;98322.50;;;4.30;54.53
73870;BME280;64924;42.140;24.762;2024-01-16T03:36:00;98331.50;;;4.22;54.88
73870;BME280;64924;42.140;24.762;2024-01-16T03:38:26;98331.50;;;4.22;54.96
73870;BME280;64924;42.140;24.762;2024-01-16T03:40:51;98343.19;;;4.29;54.95
73870;BME280;64924;42.140;24.762;2024-01-16T03:43:17;98344.00;;;4.45;54.69
73870;BME280;64924;42.140;24.762;2024-01-16T03:45:44;98344.69;;;4.53;54.08
73870;BME280;64924;42.140;24.762;2024-01-16T03:48:09;98340.91;;;4.48;54.22
73870;BME280;64924;42.140;24.762;2024-01-16T03:50:34;98356.34;;;4.60;54.05
73870;BME280;64924;42.140;24.762;2024-01-16T03:53:02;98332.78;;;4.41;53.98
73870;BME280;64924;42.140;24.762;2024-01-16T03:55:29;98358.66;;;4.63;53.87
73870;BME280;64924;42.140;24.762;2024-01-16T03:57:55;98361.34;;;4.63;53.46
73870;BME280;64924;42.140;24.762;2024-01-16T04:00:21;98354.97;;;4.64;53.43
73870;BME280;64924;42.140;24.762;2024-01-16T04:02:46;98378.97;;;4.66;53.71
73870;BME280;64924;42.140;24.762;2024-01-16T04:05:12;98385.59;;;4.49;54.51
73870;BME280;64924;42.140;24.762;2024-01-16T04:07:38;98373.22;;;4.33;54.78
73870;BME280;64924;42.140;24.762;2024-01-16T04:10:05;98387.00;;;4.45;54.69
73870;BME280;64924;42.140;24.762;2024-01-16T04:12:31;98393.78;;;4.41;54.88
73870;BME280;64924;42.140;24.762;2024-01-16T04:14:56;98415.56;;;4.31;55.25
73870;BME280;64924;42.140;24.762;2024-01-16T04:17:22;98409.94;;;4.26;55.28
73870;BME280;64924;42.140;24.762;2024-01-16T04:19:47;98418.91;;;4.33;55.38
73870;BME280;64924;42.140;24.762;2024-01-16T04:22:13;98369.59;;;4.11;55.37
73870;BME280;64924;42.140;24.762;2024-01-16T04:24:38;98422.72;;;4.39;55.41
73870;BME280;64924;42.140;24.762;2024-01-16T04:27:04;98424.00;;;4.43;55.59
73870;BME280;64924;42.140;24.762;2024-01-16T04:29:29;98421.69;;;4.25;55.93
73870;BME280;64924;42.140;24.762;2024-01-16T04:31:55;98422.16;;;4.28;55.90
73870;BME280;64924;42.140;24.762;2024-01-16T04:34:20;98437.72;;;4.33;56.03
73870;BME280;64924;42.140;24.762;2024-01-16T04:36:46;98422.72;;;4.39;55.94
73870;BME280;64924;42.140;24.762;2024-01-16T04:39:12;98425.03;;;4.42;55.26
73870;BME280;64924;42.140;24.762;2024-01-16T04:41:37;98426.56;;;4.51;55.17
73870;BME280;64924;42.140;24.762;2024-01-16T04:44:03;98441.41;;;4.61;54.94
73870;BME280;64924;42.140;24.762;2024-01-16T04:46:28;98443.72;;;4.64;54.79
73870;BME280;64924;42.140;24.762;2024-01-16T04:48:54;98447.34;;;4.72;54.64
73870;BME280;64924;42.140;24.762;2024-01-16T04:51:20;98457.06;;;4.73;54.58
73870;BME280;64924;42.140;24.762;2024-01-16T04:53:45;98449.00;;;4.73;54.40
73870;BME280;64924;42.140;24.762;2024-01-16T04:56:11;98467.84;;;4.73;54.16
73870;BME280;64924;42.140;24.762;2024-01-16T04:58:36;98472.47;;;4.79;54.19
73870;BME280;64924;42.140;24.762;2024-01-16T05:01:02;98468.94;;;4.78;54.44
73870;BME280;64924;42.140;24.762;2024-01-16T05:03:27;98479.88;;;4.77;54.54
73870;BME280;64924;42.140;24.762;2024-01-16T05:05:53;98465.41;;;4.78;54.10
73870;BME280;64924;42.140;24.762;2024-01-16T05:08:18;98490.28;;;4.80;54.02
73870;BME280;64924;42.140;24.762;2024-01-16T05:10:44;98492.41;;;4.69;54.66
73870;BME280;64924;42.140;24.762;2024-01-16T05:13:09;98481.84;;;4.68;54.27
73870;BME280;64924;42.140;24.762;2024-01-16T05:15:37;98501.69;;;4.82;54.04
73870;BME280;64924;42.140;24.762;2024-01-16T05:18:03;98492.38;;;4.84;53.84
73870;BME280;64924;42.140;24.762;2024-01-16T05:20:28;98481.44;;;4.86;53.31
73870;BME280;64924;42.140;24.762;2024-01-16T05:22:54;98492.47;;;4.91;52.99
73870;BME280;64924;42.140;24.762;2024-01-16T05:25:20;98500.25;;;4.86;53.15
73870;BME280;64924;42.140;24.762;2024-01-16T05:27:46;98512.78;;;4.93;53.19
73870;BME280;64924;42.140;24.762;2024-01-16T05:30:12;98466.81;;;4.59;52.74
73870;BME280;64924;42.140;24.762;2024-01-16T05:32:37;98533.03;;;4.89;52.57
73870;BME280;64924;42.140;24.762;2024-01-16T05:35:05;98524.84;;;4.83;51.91
73870;BME280;64924;42.140;24.762;2024-01-16T05:37:30;98531.38;;;4.74;51.97
73870;BME280;64924;42.140;24.762;2024-01-16T05:39:56;98553.91;;;4.73;52.29
73870;BME280;64924;42.140;24.762;2024-01-16T05:42:21;98555.31;;;4.68;52.22
73870;BME280;64924;42.140;24.762;2024-01-16T05:44:47;98551.50;;;4.63;52.13
73870;BME280;64924;42.140;24.762;2024-01-16T05:47:12;98556.22;;;4.61;52.04
73870;BME280;64924;42.140;24.762;2024-01-16T05:49:38;98575.72;;;4.78;51.80
73870;BME280;64924;42.140;24.762;2024-01-16T05:52:03;98583.88;;;4.84;51.50
73870;BME280;64924;42.140;24.762;2024-01-16T05:54:29;98585.63;;;4.92;51.48
73870;BME280;64924;42.140;24.762;2024-01-16T05:56:54;98581.00;;;5.00;51.32
73870;BME280;64924;42.140;24.762;2024-01-16T05:59:20;98593.91;;;5.05;50.80
73870;BME280;64924;42.140;24.762;2024-01-16T06:01:45;98600.41;;;5.11;50.94
73870;BME280;64924;42.140;24.762;2024-01-16T06:04:11;98559.75;;;4.91;50.93
73870;BME280;64924;42.140;24.762;2024-01-16T06:06:36;98594.09;;;5.03;51.03
73870;BME280;64924;42.140;24.762;2024-01-16T06:09:02;98609.31;;;5.11;51.33
73870;BME280;64924;42.140;24.762;2024-01-16T06:11:33;98615.63;;;5.18;51.40
73870;BME280;64924;42.140;24.762;2024-01-16T06:14:00;98601.75;;;5.21;51.32
73870;BME280;64924;42.140;24.762;2024-01-16T06:16:25;98580.75;;;5.31;50.62
73870;BME280;64924;42.140;24.762;2024-01-16T06:18:51;98636.13;;;5.70;50.62
73870;BME280;64924;42.140;24.762;2024-01-16T06:21:16;98634.34;;;5.77;51.61
73870;BME280;64924;42.140;24.762;2024-01-16T06:23:43;98657.66;;;5.85;52.87
73870;BME280;64924;42.140;24.762;2024-01-16T06:26:09;98677.28;;;5.93;53.66
73870;BME280;64924;42.140;24.762;2024-01-16T06:28:34;98679.00;;;6.01;54.48
73870;BME280;64924;42.140;24.762;2024-01-16T06:31:00;98693.84;;;6.12;54.57
73870;BME280;64924;42.140;24.762;2024-01-16T06:33:26;98697.44;;;6.19;54.97
73870;BME280;64924;42.140;24.762;2024-01-16T06:35:54;98693.59;;;6.28;55.21
73870;BME280;64924;42.140;24.762;2024-01-16T06:38:19;98669.34;;;6.28;55.12
73870;BME280;64924;42.140;24.762;2024-01-16T06:40:45;98692.94;;;6.47;55.25
73870;BME280;64924;42.140;24.762;2024-01-16T06:43:10;98618.16;;;6.13;55.58
73870;BME280;64924;42.140;24.762;2024-01-16T06:45:39;98646.88;;;6.49;55.12
73870;BME280;64924;42.140;24.762;2024-01-16T06:48:05;98686.41;;;6.84;55.23
73870;BME280;64924;42.140;24.762;2024-01-16T06:50:30;98714.41;;;7.04;55.05
73870;BME280;64924;42.140;24.762;2024-01-16T06:52:56;98727.59;;;7.21;55.16
73870;BME280;64924;42.140;24.762;2024-01-16T06:55:21;98725.59;;;7.29;55.82
73870;BME280;64924;42.140;24.762;2024-01-16T06:57:47;98732.50;;;7.38;55.67
73870;BME280;64924;42.140;24.762;2024-01-16T07:00:13;98727.75;;;7.47;55.52
73870;BME280;64924;42.140;24.762;2024-01-16T07:02:39;98733.84;;;7.56;55.44
73870;BME280;64924;42.140;24.762;2024-01-16T07:05:05;98744.50;;;7.64;55.62
73870;BME280;64924;42.140;24.762;2024-01-16T07:07:30;98754.97;;;7.74;55.47
73870;BME280;64924;42.140;24.762;2024-01-16T07:09:56;98760.59;;;7.79;54.70
73870;BME280;64924;42.140;24.762;2024-01-16T07:12:21;98777.66;;;7.86;55.00
73870;BME280;64924;42.140;24.762;2024-01-16T07:14:47;98773.09;;;7.86;55.27
73870;BME280;64924;42.140;24.762;2024-01-16T07:17:12;98753.44;;;7.64;55.42
73870;BME280;64924;42.140;24.762;2024-01-16T07:19:38;98776.78;;;7.72;55.28
73870;BME280;64924;42.140;24.762;2024-01-16T07:22:03;98807.47;;;7.92;55.29
73870;BME280;64924;42.140;24.762;2024-01-16T07:24:29;98812.47;;;7.95;55.31
73870;BME280;64924;42.140;24.762;2024-01-16T07:26:54;98824.56;;;7.99;55.71
73870;BME280;64924;42.140;24.762;2024-01-16T07:29:19;98799.31;;;7.86;56.06
73870;BME280;64924;42.140;24.762;2024-01-16T07:31:46;98833.31;;;8.01;56.00
73870;BME280;64924;42.140;24.762;2024-01-16T07:34:11;98844.13;;;8.01;55.95
73870;BME280;64924;42.140;24.762;2024-01-16T07:36:37;98838.09;;;7.99;55.90
73870;BME280;64924;42.140;24.762;2024-01-16T07:39:03;98851.47;;;8.08;55.70
73870;BME280;64924;42.140;24.762;2024-01-16T07:41:29;98848.13;;;8.05;55.79
73870;BME280;64924;42.140;24.762;2024-01-16T07:43:54;98875.41;;;8.17;55.56
73870;BME280;64924;42.140;24.762;2024-01-16T07:46:20;98882.31;;;8.20;55.08
73870;BME280;64924;42.140;24.762;2024-01-16T07:48:45;98801.75;;;7.74;54.76
73870;BME280;64924;42.140;24.762;2024-01-16T07:51:11;98884.22;;;8.26;54.73
73870;BME280;64924;42.140;24.762;2024-01-16T07:53:36;98900.31;;;8.34;54.01
73870;BME280;64924;42.140;24.762;2024-01-16T07:56:02;98903.22;;;8.32;53.94
73870;BME280;64924;42.140;24.762;2024-01-16T07:58:28;98879.78;;;8.18;53.86
73870;BME280;64924;42.140;24.762;2024-01-16T08:00:53;98924.13;;;8.45;53.26
73870;BME280;64924;42.140;24.762;2024-01-16T08:03:19;98920.78;;;8.43;53.00
73870;BME280;64924;42.140;24.762;2024-01-16T08:05:44;98932.84;;;8.41;53.13
73870;BME280;64924;42.140;24.762;2024-01-16T08:08:10;98939.88;;;8.35;53.30
73870;BME280;64924;42.140;24.762;2024-01-16T08:10:36;98944.47;;;8.34;52.95
73870;BME280;64924;42.140;24.762;2024-01-16T08:13:01;98932.91;;;8.26;52.94
73870;BME280;64924;42.140;24.762;2024-01-16T08:15:27;98941.75;;;8.34;52.59
73870;BME280;64924;42.140;24.762;2024-01-16T08:17:52;98945.78;;;8.45;52.43
73870;BME280;64924;42.140;24.762;2024-01-16T08:20:18;98943.94;;;8.52;52.10
73870;BME280;64924;42.140;24.762;2024-01-16T08:22:43;98940.38;;;8.45;51.56
73870;BME280;64924;42.140;24.762;2024-01-16T08:25:09;98951.44;;;8.57;51.49
73870;BME280;64924;42.140;24.762;2024-01-16T08:27:34;98889.38;;;8.21;51.45
73870;BME280;64924;42.140;24.762;2024-01-16T08:30:03;98907.94;;;8.24;51.39
73870;BME280;64924;42.140;24.762;2024-01-16T08:32:28;98941.00;;;8.47;50.95
73870;BME280;64924;42.140;24.762;2024-01-16T08:34:54;98948.09;;;8.55;51.19
73870;BME280;64924;42.140;24.762;2024-01-16T08:37:20;98961.28;;;8.64;51.02
73870;BME280;64924;42.140;24.762;2024-01-16T08:39:45;98961.69;;;8.61;50.71
73870;BME280;64924;42.140;24.762;2024-01-16T08:42:11;98931.59;;;8.43;50.35
73870;BME280;64924;42.140;24.762;2024-01-16T08:44:40;98980.94;;;8.80;49.88
73870;BME280;64924;42.140;24.762;2024-01-16T08:47:05;98995.38;;;8.93;49.12
73870;BME280;64924;42.140;24.762;2024-01-16T08:49:32;99013.94;;;8.96;48.61
73870;BME280;64924;42.140;24.762;2024-01-16T08:51:58;99002.84;;;8.91;48.67
73870;BME280;64924;42.140;24.762;2024-01-16T08:54:24;99030.59;;;8.93;48.48
73870;BME280;64924;42.140;24.762;2024-01-16T08:56:51;99017.88;;;8.87;48.51
73870;BME280;64924;42.140;24.762;2024-01-16T08:59:16;99040.66;;;9.06;48.00
73870;BME280;64924;42.140;24.762;2024-01-16T09:01:42;99031.97;;;9.17;47.75
73870;BME280;64924;42.140;24.762;2024-01-16T09:04:08;99019.44;;;9.16;47.12
73870;BME280;64924;42.140;24.762;2024-01-16T09:06:33;99035.53;;;9.24;46.98
73870;BME280;64924;42.140;24.762;2024-01-16T09:08:59;99044.03;;;9.15;47.09
73870;BME280;64924;42.140;24.762;2024-01-16T09:11:24;99043.03;;;9.22;46.95
73870;BME280;64924;42.140;24.762;2024-01-16T09:13:50;99055.22;;;9.46;46.43
73870;BME280;64924;42.140;24.762;2024-01-16T09:16:17;99054.19;;;9.54;45.69
73870;BME280;64924;42.140;24.762;2024-01-16T09:18:42;99007.25;;;9.53;45.41
73870;BME280;64924;42.140;24.762;2024-01-16T09:21:08;99055.94;;;9.94;44.65
73870;BME280;64924;42.140;24.762;2024-01-16T09:23:33;99048.22;;;9.98;44.46
73870;BME280;64924;42.140;24.762;2024-01-16T09:25:59;99057.66;;;10.22;43.45
73870;BME280;64924;42.140;24.762;2024-01-16T09:28:24;99061.66;;;10.39;43.15
73870;BME280;64924;42.140;24.762;2024-01-16T09:30:50;99059.94;;;10.45;42.34
73870;BME280;64924;42.140;24.762;2024-01-16T09:33:15;99060.16;;;10.56;41.41
73870;BME280;64924;42.140;24.762;2024-01-16T09:35:42;99037.13;;;10.79;40.77
73870;BME280;64924;42.140;24.762;2024-01-16T09:38:07;99069.00;;;11.23;39.53
73870;BME280;64924;42.140;24.762;2024-01-16T09:40:34;99082.97;;;11.33;38.85
73870;BME280;64924;42.140;24.762;2024-01-16T09:43:01;99069.06;;;11.03;38.75
73870;BME280;64924;42.140;24.762;2024-01-16T09:45:26;99084.34;;;10.91;39.28
73870;BME280;64924;42.140;24.762;2024-01-16T09:47:53;99084.81;;;10.75;39.27
73870;BME280;64924;42.140;24.762;2024-01-16T09:50:19;99062.25;;;10.48;39.26
73870;BME280;64924;42.140;24.762;2024-01-16T09:52:48;99095.00;;;10.86;39.03
73870;BME280;64924;42.140;24.762;2024-01-16T09:55:17;99082.44;;;11.04;38.76
73870;BME280;64924;42.140;24.762;2024-01-16T09:57:45;99084.53;;;11.02;37.96
73870;BME280;64924;42.140;24.762;2024-01-16T10:00:11;99079.94;;;10.96;37.79
73870;BME280;64924;42.140;24.762;2024-01-16T10:02:41;99089.78;;;10.97;37.61
73870;BME280;64924;42.140;24.762;2024-01-16T10:05:11;99081.84;;;10.83;37.72
73870;BME280;64924;42.140;24.762;2024-01-16T10:07:40;99087.28;;;10.89;37.10
73870;BME280;64924;42.140;24.762;2024-01-16T10:10:06;99094.97;;;11.12;37.36
73870;BME280;64924;42.140;24.762;2024-01-16T10:12:33;99096.59;;;11.26;36.62
73870;BME280;64924;42.140;24.762;2024-01-16T10:14:59;99095.69;;;11.46;36.47
73870;BME280;64924;42.140;24.762;2024-01-16T10:17:41;99102.25;;;11.76;35.86
73870;BME280;64924;42.140;24.762;2024-01-16T10:20:11;99105.22;;;11.68;35.23
73870;BME280;64924;42.140;24.762;2024-01-16T10:22:52;99113.34;;;11.75;35.31
73870;BME280;64924;42.140;24.762;2024-01-16T10:25:18;99125.81;;;11.51;35.61
73870;BME280;64924;42.140;24.762;2024-01-16T10:27:46;99110.16;;;11.39;35.72
73870;BME280;64924;42.140;24.762;2024-01-16T10:30:12;99107.69;;;11.18;35.83
73870;BME280;64924;42.140;24.762;2024-01-16T10:32:40;99112.72;;;11.21;36.12
73870;BME280;64924;42.140;24.762;2024-01-16T10:35:13;99126.72;;;11.18;36.20
73870;BME280;64924;42.140;24.762;2024-01-16T10:37:46;99118.78;;;11.17;36.69
73870;BME280;64924;42.140;24.762;2024-01-16T10:40:22;99084.31;;;11.04;36.35
73870;BME280;64924;42.140;24.762;2024-01-16T10:42:58;99112.78;;;10.82;36.93
73870;BME280;64924;42.140;24.762;2024-01-16T10:45:23;99118.66;;;10.52;36.72
73870;BME280;64924;42.140;24.762;2024-01-16T10:47:59;99119.72;;;10.38;37.25
73870;BME280;64924;42.140;24.762;2024-01-16T10:50:26;99123.69;;;10.35;37.36
73870;BME280;64924;42.140;24.762;2024-01-16T10:52:52;99135.34;;;10.43;37.96
73870;BME280;64924;42.140;24.762;2024-01-16T10:55:21;99121.59;;;10.31;37.35
73870;BME280;64924;42.140;24.762;2024-01-16T10:57:51;99118.66;;;10.26;37.53
73870;BME280;64924;42.140;24.762;2024-01-16T11:00:20;99133.06;;;10.33;37.46
73870;BME280;64924;42.140;24.762;2024-01-16T11:03:01;99136.84;;;10.52;37.30
73870;BME280;64924;42.140;24.762;2024-01-16T11:05:31;99137.03;;;10.44;37.46
73870;BME280;64924;42.140;24.762;2024-01-16T11:07:59;99127.66;;;10.33;37.62
73870;BME280;64924;42.140;24.762;2024-01-16T11:10:27;99137.88;;;10.44;37.34
73870;BME280;64924;42.140;24.762;2024-01-16T11:12:53;99128.47;;;10.33;37.01
73870;BME280;64924;42.140;24.762;2024-01-16T11:15:21;99131.81;;;10.29;37.45
73870;BME280;64924;42.140;24.762;2024-01-16T11:17:47;99131.81;;;10.22;37.00
73870;BME280;64924;42.140;24.762;2024-01-16T11:20:15;99132.78;;;10.15;37.30
73870;BME280;64924;42.140;24.762;2024-01-16T11:22:43;99139.44;;;10.05;37.14
73870;BME280;64924;42.140;24.762;2024-01-16T11:25:11;99124.84;;;9.93;37.14
73870;BME280;64924;42.140;24.762;2024-01-16T11:27:38;99142.78;;;10.07;37.30
73870;BME280;64924;42.140;24.762;2024-01-16T11:30:08;99136.75;;;10.12;37.00
73870;BME280;64924;42.140;24.762;2024-01-16T11:32:36;99147.81;;;10.11;37.03
73870;BME280;64924;42.140;24.762;2024-01-16T11:35:03;99110.16;;;9.75;36.98
73870;BME280;64924;42.140;24.762;2024-01-16T11:37:33;99132.56;;;10.10;36.61
73870;BME280;64924;42.140;24.762;2024-01-16T11:40:22;99148.53;;;10.39;36.64
73870;BME280;64924;42.140;24.762;2024-01-16T11:42:52;99143.72;;;10.41;36.16
73870;BME280;64924;42.140;24.762;2024-01-16T11:48:12;99129.94;;;10.29;35.08
73870;BME280;64924;42.140;24.762;2024-01-16T11:50:39;99157.50;;;10.26;35.59
73870;BME280;64924;42.140;24.762;2024-01-16T11:53:04;99166.06;;;10.30;35.60
73870;BME280;64924;42.140;24.762;2024-01-16T11:56:06;99178.84;;;10.62;35.32
73870;BME280;64924;42.140;24.762;2024-01-16T11:58:48;99182.59;;;10.61;35.28
73870;BME280;64924;42.140;24.762;2024-01-16T12:01:20;99177.78;;;10.44;35.19
73870;BME280;64924;42.140;24.762;2024-01-16T12:04:04;99174.25;;;10.63;34.85
73870;BME280;64924;42.140;24.762;2024-01-16T12:06:34;99188.47;;;10.65;35.06
73870;BME280;64924;42.140;24.762;2024-01-16T12:09:16;99157.13;;;10.76;34.46
73870;BME280;64924;42.140;24.762;2024-01-16T12:11:59;99162.75;;;10.81;34.22
73870;BME280;64924;42.140;24.762;2024-01-16T12:14:26;99194.50;;;10.80;34.32
73870;BME280;64924;42.140;24.762;2024-01-16T12:16:52;99186.78;;;10.90;34.36
73870;BME280;64924;42.140;24.762;2024-01-16T12:19:18;99178.84;;;10.89;33.90
73870;BME280;64924;42.140;24.762;2024-01-16T12:21:44;99183.03;;;10.85;34.29
73870;BME280;64924;42.140;24.762;2024-01-16T12:24:11;99192.22;;;10.77;34.07
73870;BME280;64924;42.140;24.762;2024-01-16T12:26:37;99129.50;;;10.46;33.95
73870;BME280;64924;42.140;24.762;2024-01-16T12:29:03;99181.56;;;10.69;34.01
73870;BME280;64924;42.140;24.762;2024-01-16T12:31:29;99198.09;;;10.74;34.09
73870;BME280;64924;42.140;24.762;2024-01-16T12:34:05;99205.19;;;10.88;34.06
73870;BME280;64924;42.140;24.762;2024-01-16T12:36:31;99210.63;;;10.75;34.00
73870;BME280;64924;42.140;24.762;2024-01-16T12:38:56;99197.66;;;10.70;34.49
73870;BME280;64924;42.140;24.762;2024-01-16T12:41:22;99197.66;;;10.70;34.19
73870;BME280;64924;42.140;24.762;2024-01-16T12:43:50;99220.66;;;10.75;34.47
73870;BME280;64924;42.140;24.762;2024-01-16T12:46:16;99163.97;;;10.32;34.05
73870;BME280;64924;42.140;24.762;2024-01-16T12:48:41;99214.13;;;10.43;33.81
73870;BME280;64924;42.140;24.762;2024-01-16T12:51:07;99218.09;;;10.47;34.29
73870;BME280;64924;42.140;24.762;2024-01-16T12:53:35;99187.38;;;10.26;33.85
73870;BME280;64924;42.140;24.762;2024-01-16T12:56:04;99218.28;;;10.32;34.25
73870;BME280;64924;42.140;24.762;2024-01-16T12:58:34;99233.56;;;10.53;34.08